sensor_id;sensor_type;location;lat;lon;timestamp;P1;P2;P0
62778;PMS7003;48821;48.796;2.396;2023-02-18T00:00:28;15.00;14.00;9.67
62778;PMS7003;48821;48.796;2.396;2023-02-18T00:01:39;18.00;15.00;9.00
62778;PMS7003;48821;48.796;2.396;2023-02-18T00:02:51;13.00;11.67;9.00
62778;PMS7003;48821;48.796;2.396;2023-02-18T00:04:01;12.00;12.00;9.00
62778;PMS7003;48821;48.796;2.396;2023-02-18T00:05:14;16.33;13.67;8.67
62778;PMS7003;48821;48.796;2.396;2023-02-18T00:06:26;12.00;11.50;10.00
62778;PMS7003;48821;48.796;2.396;2023-02-18T00:07:40;11.00;11.00;9.00
62778;PMS7003;48821;48.796;2.396;2023-02-18T00:08:51;14.00;12.50;9.00
62778;PMS7003;48821;48.796;2.396;2023-02-18T00:10:03;14.00;14.00;8.50
62778;PMS7003;48821;48.796;2.396;2023-02-18T00:11:16;16.67;14.67;10.67
62778;PMS7003;48821;48.796;2.396;2023-02-18T00:12:29;15.50;14.50;9.00
62778;PMS7003;48821;48.796;2.396;2023-02-18T00:13:40;11.00;10.00;8.00
62778;PMS7003;48821;48.796;2.396;2023-02-18T00:14:51;10.50;10.50;7.50
62778;PMS7003;48821;48.796;2.396;2023-02-18T00:16:03;12.50;12.50;9.00
62778;PMS7003;48821;48.796;2.396;2023-02-18T00:17:15;16.00;11.50;8.00
62778;PMS7003;48821;48.796;2.396;2023-02-18T00:18:26;13.00;10.00;7.50
62778;PMS7003;48821;48.796;2.396;2023-02-18T00:19:38;11.40;11.00;8.20
62778;PMS7003;48821;48.796;2.396;2023-02-18T00:20:49;12.00;12.00;9.00
62778;PMS7003;48821;48.796;2.396;2023-02-18T00:22:00;11.50;10.00;8.00
62778;PMS7003;48821;48.796;2.396;2023-02-18T00:23:12;27.00;19.80;15.00
62778;PMS7003;48821;48.796;2.396;2023-02-18T00:24:24;18.00;16.00;10.60
62778;PMS7003;48821;48.796;2.396;2023-02-18T00:25:35;17.33;17.33;11.33
62778;PMS7003;48821;48.796;2.396;2023-02-18T00:26:48;15.00;10.00;7.00
62778;PMS7003;48821;48.796;2.396;2023-02-18T00:28:00;12.00;11.00;7.50
62778;PMS7003;48821;48.796;2.396;2023-02-18T00:29:11;15.00;13.50;10.00
62778;PMS7003;48821;48.796;2.396;2023-02-18T00:30:22;10.00;8.00;6.00
62778;PMS7003;48821;48.796;2.396;2023-02-18T00:31:33;10.50;10.00;8.00
62778;PMS7003;48821;48.796;2.396;2023-02-18T00:32:45;11.50;11.00;9.00
62778;PMS7003;48821;48.796;2.396;2023-02-18T00:33:58;15.40;9.40;7.60
62778;PMS7003;48821;48.796;2.396;2023-02-18T00:35:08;14.50;12.00;9.00
62778;PMS7003;48821;48.796;2.396;2023-02-18T00:36:21;14.40;14.00;9.40
62778;PMS7003;48821;48.796;2.396;2023-02-18T00:37:31;15.00;10.00;8.00
62778;PMS7003;48821;48.796;2.396;2023-02-18T00:38:43;13.50;12.00;9.00
62778;PMS7003;48821;48.796;2.396;2023-02-18T00:39:58;13.83;12.00;8.50
62778;PMS7003;48821;48.796;2.396;2023-02-18T00:41:08;15.00;14.00;10.00
62778;PMS7003;48821;48.796;2.396;2023-02-18T00:42:19;12.00;12.00;8.50
62778;PMS7003;48821;48.796;2.396;2023-02-18T00:43:30;13.00;11.50;9.00
62778;PMS7003;48821;48.796;2.396;2023-02-18T00:44:41;12.50;11.00;8.50
62778;PMS7003;48821;48.796;2.396;2023-02-18T00:45:52;12.00;12.00;8.00
62778;PMS7003;48821;48.796;2.396;2023-02-18T00:47:04;18.60;17.60;12.00
62778;PMS7003;48821;48.796;2.396;2023-02-18T00:48:16;18.00;16.67;10.33
62778;PMS7003;48821;48.796;2.396;2023-02-18T00:49:28;20.20;16.60;11.20
62778;PMS7003;48821;48.796;2.396;2023-02-18T00:50:39;13.00;12.00;9.00
62778;PMS7003;48821;48.796;2.396;2023-02-18T00:51:50;15.00;12.00;9.00
62778;PMS7003;48821;48.796;2.396;2023-02-18T00:53:01;11.00;11.00;8.00
62778;PMS7003;48821;48.796;2.396;2023-02-18T00:54:12;8.00;8.00;5.50
62778;PMS7003;48821;48.796;2.396;2023-02-18T00:55:23;15.00;13.50;9.50
62778;PMS7003;48821;48.796;2.396;2023-02-18T00:56:35;14.00;10.33;8.00
62778;PMS7003;48821;48.796;2.396;2023-02-18T00:57:45;14.50;12.00;9.00
62778;PMS7003;48821;48.796;2.396;2023-02-18T00:58:56;12.50;11.00;8.50
62778;PMS7003;48821;48.796;2.396;2023-02-18T01:00:08;14.67;13.00;9.00
62778;PMS7003;48821;48.796;2.396;2023-02-18T01:01:23;16.14;13.29;9.57
62778;PMS7003;48821;48.796;2.396;2023-02-18T01:02:34;11.00;11.00;7.00
62778;PMS7003;48821;48.796;2.396;2023-02-18T01:03:45;12.00;8.00;6.00
62778;PMS7003;48821;48.796;2.396;2023-02-18T01:04:57;11.67;10.67;9.00
62778;PMS7003;48821;48.796;2.396;2023-02-18T01:06:07;10.00;10.00;7.50
62778;PMS7003;48821;48.796;2.396;2023-02-18T01:07:21;13.60;11.80;10.20
62778;PMS7003;48821;48.796;2.396;2023-02-18T01:08:33;11.50;11.50;8.50
62778;PMS7003;48821;48.796;2.396;2023-02-18T01:09:44;15.00;14.00;11.00
62778;PMS7003;48821;48.796;2.396;2023-02-18T01:10:56;14.50;10.00;7.00
62778;PMS7003;48821;48.796;2.396;2023-02-18T01:12:07;15.50;14.50;10.00
62778;PMS7003;48821;48.796;2.396;2023-02-18T01:13:18;12.25;10.75;7.25
62778;PMS7003;48821;48.796;2.396;2023-02-18T01:14:31;15.33;13.17;9.50
62778;PMS7003;48821;48.796;2.396;2023-02-18T01:15:42;13.50;12.00;9.00
62778;PMS7003;48821;48.796;2.396;2023-02-18T01:16:53;14.50;10.00;7.00
62778;PMS7003;48821;48.796;2.396;2023-02-18T01:18:04;11.50;11.50;10.00
62778;PMS7003;48821;48.796;2.396;2023-02-18T01:19:16;10.00;9.50;7.50
62778;PMS7003;48821;48.796;2.396;2023-02-18T01:20:27;16.00;12.00;9.00
62778;PMS7003;48821;48.796;2.396;2023-02-18T01:21:39;13.60;11.40;8.60
62778;PMS7003;48821;48.796;2.396;2023-02-18T01:22:50;12.00;10.00;8.00
62778;PMS7003;48821;48.796;2.396;2023-02-18T01:24:01;9.00;8.00;7.00
62778;PMS7003;48821;48.796;2.396;2023-02-18T01:25:12;13.00;10.50;8.00
62778;PMS7003;48821;48.796;2.396;2023-02-18T01:26:26;10.83;10.83;8.17
62778;PMS7003;48821;48.796;2.396;2023-02-18T01:27:36;13.00;10.50;7.50
62778;PMS7003;48821;48.796;2.396;2023-02-18T01:28:47;12.50;11.50;7.00
62778;PMS7003;48821;48.796;2.396;2023-02-18T01:29:58;13.00;11.50;9.00
62778;PMS7003;48821;48.796;2.396;2023-02-18T01:31:10;12.00;11.50;9.00
62778;PMS7003;48821;48.796;2.396;2023-02-18T01:32:22;14.50;12.00;9.00
62778;PMS7003;48821;48.796;2.396;2023-02-18T01:33:33;14.00;10.00;7.00
62778;PMS7003;48821;48.796;2.396;2023-02-18T01:34:45;10.50;9.50;7.75
62778;PMS7003;48821;48.796;2.396;2023-02-18T01:35:58;12.00;9.83;8.33
62778;PMS7003;48821;48.796;2.396;2023-02-18T01:37:09;14.50;10.00;6.50
62778;PMS7003;48821;48.796;2.396;2023-02-18T01:38:20;15.50;10.00;8.00
62778;PMS7003;48821;48.796;2.396;2023-02-18T01:39:32;10.00;8.60;6.20
62778;PMS7003;48821;48.796;2.396;2023-02-18T01:40:46;10.00;10.00;7.00
62778;PMS7003;48821;48.796;2.396;2023-02-18T01:42:00;10.00;9.00;7.50
62778;PMS7003;48821;48.796;2.396;2023-02-18T01:43:14;12.17;10.67;8.33
62778;PMS7003;48821;48.796;2.396;2023-02-18T01:44:27;8.75;8.00;6.50
62778;PMS7003;48821;48.796;2.396;2023-02-18T01:46:16;8.83;8.00;5.67
62778;PMS7003;48821;48.796;2.396;2023-02-18T01:47:25;14.50;11.00;8.00
62778;PMS7003;48821;48.796;2.396;2023-02-18T01:50:07;10.67;8.33;6.67
62778;PMS7003;48821;48.796;2.396;2023-02-18T01:51:23;10.50;8.00;7.00
62778;PMS7003;48821;48.796;2.396;2023-02-18T01:52:39;11.50;8.50;6.00
62778;PMS7003;48821;48.796;2.396;2023-02-18T01:55:01;11.00;9.00;6.67
62778;PMS7003;48821;48.796;2.396;2023-02-18T01:56:13;9.67;8.67;6.67
62778;PMS7003;48821;48.796;2.396;2023-02-18T01:57:34;10.00;8.75;6.75
62778;PMS7003;48821;48.796;2.396;2023-02-18T01:58:47;7.00;7.00;5.50
62778;PMS7003;48821;48.796;2.396;2023-02-18T02:00:06;8.67;8.67;8.00
62778;PMS7003;48821;48.796;2.396;2023-02-18T02:01:22;10.67;8.67;6.33
62778;PMS7003;48821;48.796;2.396;2023-02-18T02:02:35;7.50;7.00;6.00
62778;PMS7003;48821;48.796;2.396;2023-02-18T02:03:49;11.00;10.00;7.00
62778;PMS7003;48821;48.796;2.396;2023-02-18T02:05:00;8.00;7.75;6.00
62778;PMS7003;48821;48.796;2.396;2023-02-18T02:06:14;7.50;7.50;5.75
62778;PMS7003;48821;48.796;2.396;2023-02-18T02:07:27;9.00;7.00;5.00
62778;PMS7003;48821;48.796;2.396;2023-02-18T02:08:38;8.00;8.00;6.67
62778;PMS7003;48821;48.796;2.396;2023-02-18T02:09:50;14.00;9.00;6.50
62778;PMS7003;48821;48.796;2.396;2023-02-18T02:11:06;9.67;7.33;6.00
62778;PMS7003;48821;48.796;2.396;2023-02-18T02:12:42;7.83;7.00;5.50
62778;PMS7003;48821;48.796;2.396;2023-02-18T02:18:59;9.00;8.00;5.00
62778;PMS7003;48821;48.796;2.396;2023-02-18T02:35:21;8.00;7.17;5.50
62778;PMS7003;48821;48.796;2.396;2023-02-18T02:36:39;8.00;6.50;5.67
62778;PMS7003;48821;48.796;2.396;2023-02-18T02:38:06;10.00;7.67;6.00
62778;PMS7003;48821;48.796;2.396;2023-02-18T02:39:39;8.33;8.33;5.00
62778;PMS7003;48821;48.796;2.396;2023-02-18T02:41:06;9.33;8.33;6.33
62778;PMS7003;48821;48.796;2.396;2023-02-18T02:42:34;12.33;8.00;6.67
62778;PMS7003;48821;48.796;2.396;2023-02-18T02:44:10;7.33;6.67;6.00
62778;PMS7003;48821;48.796;2.396;2023-02-18T02:47:00;10.00;8.67;5.67
62778;PMS7003;48821;48.796;2.396;2023-02-18T02:51:12;7.33;6.50;5.83
62778;PMS7003;48821;48.796;2.396;2023-02-18T02:52:37;10.00;7.17;6.00
62778;PMS7003;48821;48.796;2.396;2023-02-18T02:54:20;6.83;6.83;5.00
62778;PMS7003;48821;48.796;2.396;2023-02-18T02:55:36;10.25;10.25;7.50
62778;PMS7003;48821;48.796;2.396;2023-02-18T02:56:47;7.00;7.00;6.00
62778;PMS7003;48821;48.796;2.396;2023-02-18T02:57:58;11.33;9.33;6.33
62778;PMS7003;48821;48.796;2.396;2023-02-18T02:59:14;8.50;8.50;7.00
62778;PMS7003;48821;48.796;2.396;2023-02-18T03:03:52;8.33;7.00;5.83
62778;PMS7003;48821;48.796;2.396;2023-02-18T03:05:20;9.33;8.67;6.00
62778;PMS7003;48821;48.796;2.396;2023-02-18T03:06:47;9.33;8.00;7.00
62778;PMS7003;48821;48.796;2.396;2023-02-18T03:08:08;13.75;12.00;8.75
62778;PMS7003;48821;48.796;2.396;2023-02-18T03:11:21;10.00;7.00;5.00
62778;PMS7003;48821;48.796;2.396;2023-02-18T03:12:38;8.00;8.00;6.33
62778;PMS7003;48821;48.796;2.396;2023-02-18T03:14:05;8.33;7.00;5.67
62778;PMS7003;48821;48.796;2.396;2023-02-18T03:15:48;9.00;8.00;6.00
62778;PMS7003;48821;48.796;2.396;2023-02-18T03:17:14;8.50;8.00;6.00
62778;PMS7003;48821;48.796;2.396;2023-02-18T03:18:35;10.00;9.00;7.00
62778;PMS7003;48821;48.796;2.396;2023-02-18T03:19:57;9.00;7.00;5.00
62778;PMS7003;48821;48.796;2.396;2023-02-18T03:21:43;12.33;9.00;6.33
62778;PMS7003;48821;48.796;2.396;2023-02-18T03:23:00;10.17;9.33;7.00
62778;PMS7003;48821;48.796;2.396;2023-02-18T03:24:29;9.50;8.83;6.33
62778;PMS7003;48821;48.796;2.396;2023-02-18T03:25:44;9.25;9.25;8.00
62778;PMS7003;48821;48.796;2.396;2023-02-18T03:26:56;9.33;8.67;6.67
62778;PMS7003;48821;48.796;2.396;2023-02-18T03:28:16;8.33;8.33;6.00
62778;PMS7003;48821;48.796;2.396;2023-02-18T03:29:32;5.33;5.33;3.83
62778;PMS7003;48821;48.796;2.396;2023-02-18T03:30:49;8.67;8.00;6.33
62778;PMS7003;48821;48.796;2.396;2023-02-18T03:32:04;9.00;7.00;6.00
62778;PMS7003;48821;48.796;2.396;2023-02-18T03:33:31;10.67;8.00;6.00
62778;PMS7003;48821;48.796;2.396;2023-02-18T03:34:48;9.67;7.00;5.67
62778;PMS7003;48821;48.796;2.396;2023-02-18T03:36:07;9.50;9.33;6.33
62778;PMS7003;48821;48.796;2.396;2023-02-18T03:37:19;8.00;8.00;6.33
62778;PMS7003;48821;48.796;2.396;2023-02-18T03:39:56;8.83;8.83;6.50
62778;PMS7003;48821;48.796;2.396;2023-02-18T03:41:10;13.00;10.00;6.50
62778;PMS7003;48821;48.796;2.396;2023-02-18T03:42:25;9.00;8.17;5.33
62778;PMS7003;48821;48.796;2.396;2023-02-18T03:43:37;10.33;7.33;6.00
62778;PMS7003;48821;48.796;2.396;2023-02-18T03:44:52;6.83;6.17;4.83
62778;PMS7003;48821;48.796;2.396;2023-02-18T03:46:03;9.33;8.00;5.67
62778;PMS7003;48821;48.796;2.396;2023-02-18T03:47:15;8.75;8.25;6.25
62778;PMS7003;48821;48.796;2.396;2023-02-18T03:48:25;11.00;9.00;6.50
62778;PMS7003;48821;48.796;2.396;2023-02-18T03:49:37;11.00;10.00;7.20
62778;PMS7003;48821;48.796;2.396;2023-02-18T03:50:50;8.83;8.83;6.00
62778;PMS7003;48821;48.796;2.396;2023-02-18T03:52:02;8.50;8.00;6.00
62778;PMS7003;48821;48.796;2.396;2023-02-18T03:53:15;8.83;8.17;6.83
62778;PMS7003;48821;48.796;2.396;2023-02-18T03:54:26;12.50;8.75;5.50
62778;PMS7003;48821;48.796;2.396;2023-02-18T03:55:37;8.00;7.67;6.67
62778;PMS7003;48821;48.796;2.396;2023-02-18T03:56:48;13.33;9.33;7.67
62778;PMS7003;48821;48.796;2.396;2023-02-18T03:57:59;7.50;7.50;6.00
62778;PMS7003;48821;48.796;2.396;2023-02-18T03:59:10;13.50;10.00;7.50
62778;PMS7003;48821;48.796;2.396;2023-02-18T04:00:24;10.00;10.00;8.17
62778;PMS7003;48821;48.796;2.396;2023-02-18T04:01:35;9.50;7.50;5.50
62778;PMS7003;48821;48.796;2.396;2023-02-18T04:02:46;7.67;6.00;5.00
62778;PMS7003;48821;48.796;2.396;2023-02-18T04:03:57;10.75;10.00;8.00
62778;PMS7003;48821;48.796;2.396;2023-02-18T04:05:08;7.67;6.67;5.00
62778;PMS7003;48821;48.796;2.396;2023-02-18T04:06:19;10.33;6.67;6.00
62778;PMS7003;48821;48.796;2.396;2023-02-18T04:07:30;7.33;7.33;6.00
62778;PMS7003;48821;48.796;2.396;2023-02-18T04:08:41;10.00;8.33;6.00
62778;PMS7003;48821;48.796;2.396;2023-02-18T04:09:53;8.75;8.75;6.50
62778;PMS7003;48821;48.796;2.396;2023-02-18T04:11:04;8.67;7.67;6.00
62778;PMS7003;48821;48.796;2.396;2023-02-18T04:12:15;8.00;8.00;6.00
62778;PMS7003;48821;48.796;2.396;2023-02-18T04:13:26;7.33;7.33;6.00
62778;PMS7003;48821;48.796;2.396;2023-02-18T04:14:36;7.67;7.67;6.00
62778;PMS7003;48821;48.796;2.396;2023-02-18T04:15:48;11.67;10.67;7.00
62778;PMS7003;48821;48.796;2.396;2023-02-18T04:17:00;12.00;9.00;6.50
62778;PMS7003;48821;48.796;2.396;2023-02-18T04:18:11;9.50;8.00;6.00
62778;PMS7003;48821;48.796;2.396;2023-02-18T04:19:22;11.50;9.75;6.25
62778;PMS7003;48821;48.796;2.396;2023-02-18T04:20:32;9.67;8.00;6.00
62778;PMS7003;48821;48.796;2.396;2023-02-18T04:21:43;9.00;7.00;6.00
62778;PMS7003;48821;48.796;2.396;2023-02-18T04:22:54;7.67;5.67;3.67
62778;PMS7003;48821;48.796;2.396;2023-02-18T04:24:06;11.33;8.00;7.00
62778;PMS7003;48821;48.796;2.396;2023-02-18T04:25:16;8.00;8.00;6.00
62778;PMS7003;48821;48.796;2.396;2023-02-18T04:26:27;9.00;9.00;7.00
62778;PMS7003;48821;48.796;2.396;2023-02-18T04:27:38;9.50;8.00;7.00
62778;PMS7003;48821;48.796;2.396;2023-02-18T04:28:49;9.67;8.00;6.00
62778;PMS7003;48821;48.796;2.396;2023-02-18T04:30:02;9.75;9.50;6.25
62778;PMS7003;48821;48.796;2.396;2023-02-18T04:31:13;10.33;9.33;6.33
62778;PMS7003;48821;48.796;2.396;2023-02-18T04:32:26;8.20;8.20;5.20
62778;PMS7003;48821;48.796;2.396;2023-02-18T04:33:36;8.67;7.33;5.00
62778;PMS7003;48821;48.796;2.396;2023-02-18T04:34:47;8.33;7.00;5.00
62778;PMS7003;48821;48.796;2.396;2023-02-18T04:35:58;8.67;7.00;6.00
62778;PMS7003;48821;48.796;2.396;2023-02-18T04:37:09;9.00;7.67;5.00
62778;PMS7003;48821;48.796;2.396;2023-02-18T04:38:20;10.33;8.33;6.00
62778;PMS7003;48821;48.796;2.396;2023-02-18T04:39:32;9.25;8.00;6.25
62778;PMS7003;48821;48.796;2.396;2023-02-18T04:40:42;10.50;9.00;6.00
62778;PMS7003;48821;48.796;2.396;2023-02-18T04:41:53;9.00;9.00;7.00
62778;PMS7003;48821;48.796;2.396;2023-02-18T04:43:04;8.67;8.00;6.00
62778;PMS7003;48821;48.796;2.396;2023-02-18T04:44:15;10.33;7.33;6.33
62778;PMS7003;48821;48.796;2.396;2023-02-18T04:45:26;13.33;10.33;6.67
62778;PMS7003;48821;48.796;2.396;2023-02-18T04:46:37;9.33;9.00;6.00
62778;PMS7003;48821;48.796;2.396;2023-02-18T04:47:48;9.67;6.00;5.00
62778;PMS7003;48821;48.796;2.396;2023-02-18T04:48:59;9.33;8.33;5.67
62778;PMS7003;48821;48.796;2.396;2023-02-18T04:50:12;8.50;8.50;5.83
62778;PMS7003;48821;48.796;2.396;2023-02-18T04:51:23;10.67;8.00;6.00
62778;PMS7003;48821;48.796;2.396;2023-02-18T04:52:35;8.75;7.50;6.00
62778;PMS7003;48821;48.796;2.396;2023-02-18T04:53:48;7.50;7.50;5.83
62778;PMS7003;48821;48.796;2.396;2023-02-18T04:55:01;8.17;7.17;5.50
62778;PMS7003;48821;48.796;2.396;2023-02-18T04:56:12;8.00;6.00;5.33
62778;PMS7003;48821;48.796;2.396;2023-02-18T04:57:23;11.00;9.33;7.33
62778;PMS7003;48821;48.796;2.396;2023-02-18T04:58:33;6.00;6.00;4.00
62778;PMS7003;48821;48.796;2.396;2023-02-18T04:59:44;7.33;5.33;4.67
62778;PMS7003;48821;48.796;2.396;2023-02-18T05:01:01;8.50;6.50;5.83
62778;PMS7003;48821;48.796;2.396;2023-02-18T05:02:13;7.00;7.00;4.33
62778;PMS7003;48821;48.796;2.396;2023-02-18T05:03:25;10.75;7.50;6.00
62778;PMS7003;48821;48.796;2.396;2023-02-18T05:04:36;6.50;6.50;6.00
62778;PMS7003;48821;48.796;2.396;2023-02-18T05:05:47;8.00;8.00;5.67
62778;PMS7003;48821;48.796;2.396;2023-02-18T05:06:59;11.25;8.25;6.00
62778;PMS7003;48821;48.796;2.396;2023-02-18T05:08:09;8.33;7.33;6.67
62778;PMS7003;48821;48.796;2.396;2023-02-18T05:09:20;6.67;6.00;4.33
62778;PMS7003;48821;48.796;2.396;2023-02-18T05:10:32;8.25;6.25;5.25
62778;PMS7003;48821;48.796;2.396;2023-02-18T05:11:43;8.00;7.33;5.33
62778;PMS7003;48821;48.796;2.396;2023-02-18T05:12:54;3.00;3.00;2.00
62778;PMS7003;48821;48.796;2.396;2023-02-18T05:14:05;8.25;8.25;6.25
62778;PMS7003;48821;48.796;2.396;2023-02-18T05:15:19;7.50;5.67;5.17
62778;PMS7003;48821;48.796;2.396;2023-02-18T05:16:29;8.33;7.00;6.00
62778;PMS7003;48821;48.796;2.396;2023-02-18T05:17:40;7.00;6.33;5.33
62778;PMS7003;48821;48.796;2.396;2023-02-18T05:18:51;7.00;7.00;5.33
62778;PMS7003;48821;48.796;2.396;2023-02-18T05:20:04;7.00;7.00;4.33
62778;PMS7003;48821;48.796;2.396;2023-02-18T05:21:16;10.50;8.50;7.00
62778;PMS7003;48821;48.796;2.396;2023-02-18T05:22:26;7.67;7.67;5.00
62778;PMS7003;48821;48.796;2.396;2023-02-18T05:23:37;6.00;6.00;5.33
62778;PMS7003;48821;48.796;2.396;2023-02-18T05:24:49;8.50;7.25;6.50
62778;PMS7003;48821;48.796;2.396;2023-02-18T05:25:59;9.67;8.00;6.00
62778;PMS7003;48821;48.796;2.396;2023-02-18T05:27:10;10.33;8.67;5.67
62778;PMS7003;48821;48.796;2.396;2023-02-18T05:28:22;8.00;7.00;6.00
62778;PMS7003;48821;48.796;2.396;2023-02-18T05:29:36;8.33;7.50;5.83
62778;PMS7003;48821;48.796;2.396;2023-02-18T05:30:47;11.75;9.00;6.50
62778;PMS7003;48821;48.796;2.396;2023-02-18T05:32:00;7.67;7.17;6.50
62778;PMS7003;48821;48.796;2.396;2023-02-18T05:33:14;6.83;5.67;4.33
62778;PMS7003;48821;48.796;2.396;2023-02-18T05:34:27;7.83;7.50;5.83
62778;PMS7003;48821;48.796;2.396;2023-02-18T05:35:37;7.33;7.33;6.00
62778;PMS7003;48821;48.796;2.396;2023-02-18T05:36:48;8.00;6.33;5.67
62778;PMS7003;48821;48.796;2.396;2023-02-18T05:38:00;7.75;7.75;5.75
62778;PMS7003;48821;48.796;2.396;2023-02-18T05:39:11;7.00;6.67;6.00
62778;PMS7003;48821;48.796;2.396;2023-02-18T05:40:21;9.67;6.00;4.67
62778;PMS7003;48821;48.796;2.396;2023-02-18T05:41:32;10.00;8.00;5.67
62778;PMS7003;48821;48.796;2.396;2023-02-18T05:42:43;8.00;7.33;6.67
62778;PMS7003;48821;48.796;2.396;2023-02-18T05:43:54;7.67;7.67;5.00
62778;PMS7003;48821;48.796;2.396;2023-02-18T05:45:23;8.00;7.00;5.00
62778;PMS7003;48821;48.796;2.396;2023-02-18T05:46:35;5.75;5.75;5.00
62778;PMS7003;48821;48.796;2.396;2023-02-18T05:47:48;9.83;7.33;5.67
62778;PMS7003;48821;48.796;2.396;2023-02-18T05:49:01;8.00;6.33;5.00
62778;PMS7003;48821;48.796;2.396;2023-02-18T05:50:12;10.00;7.67;6.00
62778;PMS7003;48821;48.796;2.396;2023-02-18T05:51:23;9.00;6.67;5.33
62778;PMS7003;48821;48.796;2.396;2023-02-18T05:52:33;10.33;7.00;5.67
62778;PMS7003;48821;48.796;2.396;2023-02-18T05:53:44;8.67;7.00;6.00
62778;PMS7003;48821;48.796;2.396;2023-02-18T05:54:55;8.33;7.67;5.67
62778;PMS7003;48821;48.796;2.396;2023-02-18T05:56:09;7.33;6.83;4.00
62778;PMS7003;48821;48.796;2.396;2023-02-18T05:57:22;7.33;6.67;4.83
62778;PMS7003;48821;48.796;2.396;2023-02-18T05:58:35;9.33;7.00;5.00
62778;PMS7003;48821;48.796;2.396;2023-02-18T05:59:46;8.00;8.00;7.00
62778;PMS7003;48821;48.796;2.396;2023-02-18T06:00:57;9.00;7.00;6.00
62778;PMS7003;48821;48.796;2.396;2023-02-18T06:02:08;9.75;6.00;5.00
62778;PMS7003;48821;48.796;2.396;2023-02-18T06:03:22;7.00;6.83;5.33
62778;PMS7003;48821;48.796;2.396;2023-02-18T06:04:32;7.00;7.00;6.00
62778;PMS7003;48821;48.796;2.396;2023-02-18T06:05:44;8.50;7.75;6.25
62778;PMS7003;48821;48.796;2.396;2023-02-18T06:07:00;8.33;8.33;6.50
62778;PMS7003;48821;48.796;2.396;2023-02-18T06:08:11;9.33;8.00;6.00
62778;PMS7003;48821;48.796;2.396;2023-02-18T06:09:22;8.00;7.00;5.00
62778;PMS7003;48821;48.796;2.396;2023-02-18T06:10:33;7.67;6.00;4.67
62778;PMS7003;48821;48.796;2.396;2023-02-18T06:11:45;8.25;8.25;5.50
62778;PMS7003;48821;48.796;2.396;2023-02-18T06:12:56;10.00;8.25;5.75
62778;PMS7003;48821;48.796;2.396;2023-02-18T06:14:07;9.33;8.00;6.00
62778;PMS7003;48821;48.796;2.396;2023-02-18T06:15:18;7.75;6.00;5.00
62778;PMS7003;48821;48.796;2.396;2023-02-18T06:16:29;6.67;6.00;5.00
62778;PMS7003;48821;48.796;2.396;2023-02-18T06:17:43;2.00;1.17;1.17
62778;PMS7003;48821;48.796;2.396;2023-02-18T06:18:53;9.00;7.67;6.33
62778;PMS7003;48821;48.796;2.396;2023-02-18T06:20:04;9.33;5.00;4.00
62778;PMS7003;48821;48.796;2.396;2023-02-18T06:21:15;10.33;8.00;7.00
62778;PMS7003;48821;48.796;2.396;2023-02-18T06:22:27;7.33;7.33;5.33
62778;PMS7003;48821;48.796;2.396;2023-02-18T06:23:40;8.00;7.67;5.67
62778;PMS7003;48821;48.796;2.396;2023-02-18T06:24:53;6.67;6.50;4.83
62778;PMS7003;48821;48.796;2.396;2023-02-18T06:26:05;8.00;8.00;6.25
62778;PMS7003;48821;48.796;2.396;2023-02-18T06:27:18;9.33;7.83;6.50
62778;PMS7003;48821;48.796;2.396;2023-02-18T06:28:31;7.17;7.00;5.33
62778;PMS7003;48821;48.796;2.396;2023-02-18T06:29:44;4.00;4.00;4.00
62778;PMS7003;48821;48.796;2.396;2023-02-18T06:30:58;5.17;5.17;4.17
62778;PMS7003;48821;48.796;2.396;2023-02-18T06:32:11;7.67;7.50;6.67
62778;PMS7003;48821;48.796;2.396;2023-02-18T06:33:24;8.33;8.33;7.00
62778;PMS7003;48821;48.796;2.396;2023-02-18T06:34:37;6.67;6.67;5.00
62778;PMS7003;48821;48.796;2.396;2023-02-18T06:35:52;10.33;8.33;7.00
62778;PMS7003;48821;48.796;2.396;2023-02-18T06:37:09;10.00;8.00;5.00
62778;PMS7003;48821;48.796;2.396;2023-02-18T06:38:20;6.67;6.33;4.00
62778;PMS7003;48821;48.796;2.396;2023-02-18T06:39:31;8.33;6.33;5.00
62778;PMS7003;48821;48.796;2.396;2023-02-18T06:40:44;6.33;6.33;5.67
62778;PMS7003;48821;48.796;2.396;2023-02-18T06:41:56;4.33;4.33;3.67
62778;PMS7003;48821;48.796;2.396;2023-02-18T06:43:07;8.00;8.00;6.00
62778;PMS7003;48821;48.796;2.396;2023-02-18T06:44:18;13.00;7.67;6.00
62778;PMS7003;48821;48.796;2.396;2023-02-18T06:45:29;9.00;7.00;5.00
62778;PMS7003;48821;48.796;2.396;2023-02-18T06:46:39;8.67;8.00;6.00
62778;PMS7003;48821;48.796;2.396;2023-02-18T06:47:50;7.67;7.00;4.67
62778;PMS7003;48821;48.796;2.396;2023-02-18T06:49:04;8.33;8.33;6.33
62778;PMS7003;48821;48.796;2.396;2023-02-18T06:50:14;11.00;7.67;5.00
62778;PMS7003;48821;48.796;2.396;2023-02-18T06:51:25;6.33;6.33;5.00
62778;PMS7003;48821;48.796;2.396;2023-02-18T06:52:37;7.50;4.75;4.50
62778;PMS7003;48821;48.796;2.396;2023-02-18T06:53:50;6.33;5.67;5.00
62778;PMS7003;48821;48.796;2.396;2023-02-18T06:55:04;7.83;7.17;5.50
62778;PMS7003;48821;48.796;2.396;2023-02-18T06:56:15;9.00;7.00;5.67
62778;PMS7003;48821;48.796;2.396;2023-02-18T06:57:26;7.33;6.00;5.00
62778;PMS7003;48821;48.796;2.396;2023-02-18T06:58:37;5.25;5.25;4.75
62778;PMS7003;48821;48.796;2.396;2023-02-18T06:59:51;4.33;3.00;2.67
62778;PMS7003;48821;48.796;2.396;2023-02-18T07:01:02;5.00;5.00;4.67
62778;PMS7003;48821;48.796;2.396;2023-02-18T07:02:14;5.20;5.20;4.00
62778;PMS7003;48821;48.796;2.396;2023-02-18T07:03:28;8.50;7.67;5.83
62778;PMS7003;48821;48.796;2.396;2023-02-18T07:04:41;8.00;6.67;5.00
62778;PMS7003;48821;48.796;2.396;2023-02-18T07:05:54;7.17;7.17;5.00
62778;PMS7003;48821;48.796;2.396;2023-02-18T07:07:05;6.00;6.00;5.00
62778;PMS7003;48821;48.796;2.396;2023-02-18T07:08:16;6.33;5.33;4.00
62778;PMS7003;48821;48.796;2.396;2023-02-18T07:09:26;4.00;4.00;3.33
62778;PMS7003;48821;48.796;2.396;2023-02-18T07:10:38;5.33;5.33;5.00
62778;PMS7003;48821;48.796;2.396;2023-02-18T07:11:48;7.00;6.00;4.00
62778;PMS7003;48821;48.796;2.396;2023-02-18T07:12:59;5.33;5.33;4.33
62778;PMS7003;48821;48.796;2.396;2023-02-18T07:14:11;7.75;6.25;4.75
62778;PMS7003;48821;48.796;2.396;2023-02-18T07:15:24;7.33;5.33;4.00
62778;PMS7003;48821;48.796;2.396;2023-02-18T07:16:39;9.67;8.00;6.00
62778;PMS7003;48821;48.796;2.396;2023-02-18T07:17:50;6.00;6.00;5.00
62778;PMS7003;48821;48.796;2.396;2023-02-18T07:19:03;6.00;5.20;4.80
62778;PMS7003;48821;48.796;2.396;2023-02-18T07:20:16;6.67;6.67;5.00
62778;PMS7003;48821;48.796;2.396;2023-02-18T07:21:29;6.33;5.50;4.50
62778;PMS7003;48821;48.796;2.396;2023-02-18T07:22:43;5.17;4.83;3.83
62778;PMS7003;48821;48.796;2.396;2023-02-18T07:23:53;5.33;5.33;5.00
62778;PMS7003;48821;48.796;2.396;2023-02-18T07:25:04;7.33;5.00;4.67
62778;PMS7003;48821;48.796;2.396;2023-02-18T07:26:18;7.67;5.83;5.17
62778;PMS7003;48821;48.796;2.396;2023-02-18T07:27:31;5.33;4.17;3.50
62778;PMS7003;48821;48.796;2.396;2023-02-18T07:28:41;5.00;5.00;4.33
62778;PMS7003;48821;48.796;2.396;2023-02-18T07:29:52;8.00;7.00;5.67
62778;PMS7003;48821;48.796;2.396;2023-02-18T07:31:06;5.83;4.50;3.83
62778;PMS7003;48821;48.796;2.396;2023-02-18T07:32:19;5.67;5.67;4.33
62778;PMS7003;48821;48.796;2.396;2023-02-18T07:33:30;4.00;4.00;3.00
62778;PMS7003;48821;48.796;2.396;2023-02-18T07:34:42;7.00;5.00;4.00
62778;PMS7003;48821;48.796;2.396;2023-02-18T07:35:56;6.00;4.83;4.00
62778;PMS7003;48821;48.796;2.396;2023-02-18T07:37:07;6.67;4.00;3.00
62778;PMS7003;48821;48.796;2.396;2023-02-18T07:38:18;4.00;4.00;3.00